sensor_id;sensor_type;location;lat;lon;timestamp;P1;durP1;ratioP1;P2;durP2;ratioP2
71413;SDS011;59226;53.212;5.728;2022-12-18T00:01:20;11.43;;;4.97;;
71413;SDS011;59226;53.212;5.728;2022-12-18T00:03:46;5.27;;;3.57;;
71413;SDS011;59226;53.212;5.728;2022-12-18T00:06:11;9.35;;;3.72;;
71413;SDS011;59226;53.212;5.728;2022-12-18T00:08:36;6.20;;;3.93;;
71413;SDS011;59226;53.212;5.728;2022-12-18T00:11:06;7.80;;;3.67;;
71413;SDS011;59226;53.212;5.728;2022-12-18T00:13:31;9.77;;;4.03;;
71413;SDS011;59226;53.212;5.728;2022-12-18T00:16:00;9.53;;;2.17;;
71413;SDS011;59226;53.212;5.728;2022-12-18T00:18:26;6.35;;;3.67;;
71413;SDS011;59226;53.212;5.728;2022-12-18T00:20:51;3.50;;;2.83;;
71413;SDS011;59226;53.212;5.728;2022-12-18T00:23:16;4.77;;;2.37;;
71413;SDS011;59226;53.212;5.728;2022-12-18T00:25:41;8.33;;;3.23;;
71413;SDS011;59226;53.212;5.728;2022-12-18T00:28:06;5.87;;;4.30;;
71413;SDS011;59226;53.212;5.728;2022-12-18T00:30:32;5.67;;;2.40;;
71413;SDS011;59226;53.212;5.728;2022-12-18T00:32:57;8.53;;;6.33;;
71413;SDS011;59226;53.212;5.728;2022-12-18T00:35:22;6.30;;;3.77;;
71413;SDS011;59226;53.212;5.728;2022-12-18T00:37:47;8.33;;;5.30;;
71413;SDS011;59226;53.212;5.728;2022-12-18T00:40:13;5.83;;;2.70;;
71413;SDS011;59226;53.212;5.728;2022-12-18T00:42:38;9.47;;;3.87;;
71413;SDS011;59226;53.212;5.728;2022-12-18T00:45:24;8.02;;;2.05;;
71413;SDS011;59226;53.212;5.728;2022-12-18T00:47:50;8.10;;;4.20;;
71413;SDS011;59226;53.212;5.728;2022-12-18T00:50:15;5.10;;;3.33;;
71413;SDS011;59226;53.212;5.728;2022-12-18T00:52:40;3.97;;;2.13;;
71413;SDS011;59226;53.212;5.728;2022-12-18T00:55:06;6.10;;;4.37;;
71413;SDS011;59226;53.212;5.728;2022-12-18T00:57:31;5.00;;;3.07;;
71413;SDS011;59226;53.212;5.728;2022-12-18T00:59:57;13.70;;;4.17;;
71413;SDS011;59226;53.212;5.728;2022-12-18T01:02:22;8.03;;;4.20;;
71413;SDS011;59226;53.212;5.728;2022-12-18T01:04:47;11.17;;;4.33;;
71413;SDS011;59226;53.212;5.728;2022-12-18T01:07:12;12.37;;;4.40;;
71413;SDS011;59226;53.212;5.728;2022-12-18T01:09:38;8.03;;;3.27;;
71413;SDS011;59226;53.212;5.728;2022-12-18T01:12:03;11.23;;;4.20;;
71413;SDS011;59226;53.212;5.728;2022-12-18T01:14:28;5.03;;;2.80;;
71413;SDS011;59226;53.212;5.728;2022-12-18T01:16:54;7.97;;;2.10;;
71413;SDS011;59226;53.212;5.728;2022-12-18T01:19:19;8.37;;;2.93;;
71413;SDS011;59226;53.212;5.728;2022-12-18T01:21:44;10.63;;;4.63;;
71413;SDS011;59226;53.212;5.728;2022-12-18T01:24:10;6.90;;;3.67;;
71413;SDS011;59226;53.212;5.728;2022-12-18T01:26:36;5.18;;;3.40;;
71413;SDS011;59226;53.212;5.728;2022-12-18T01:29:01;7.53;;;4.27;;
71413;SDS011;59226;53.212;5.728;2022-12-18T01:31:27;7.97;;;4.40;;
71413;SDS011;59226;53.212;5.728;2022-12-18T01:33:53;17.38;;;5.88;;
71413;SDS011;59226;53.212;5.728;2022-12-18T01:36:29;6.97;;;2.37;;
71413;SDS011;59226;53.212;5.728;2022-12-18T01:38:55;8.07;;;2.95;;
71413;SDS011;59226;53.212;5.728;2022-12-18T01:41:22;18.90;;;4.83;;
71413;SDS011;59226;53.212;5.728;2022-12-18T01:43:54;5.63;;;3.90;;
71413;SDS011;59226;53.212;5.728;2022-12-18T01:46:21;5.53;;;3.13;;
71413;SDS011;59226;53.212;5.728;2022-12-18T01:48:47;9.43;;;3.35;;
71413;SDS011;59226;53.212;5.728;2022-12-18T01:51:12;9.75;;;3.45;;
71413;SDS011;59226;53.212;5.728;2022-12-18T01:53:39;8.37;;;3.87;;
71413;SDS011;59226;53.212;5.728;2022-12-18T01:56:05;4.43;;;1.73;;
71413;SDS011;59226;53.212;5.728;2022-12-18T02:01:02;7.07;;;2.85;;
71413;SDS011;59226;53.212;5.728;2022-12-18T02:03:28;1.67;;;1.53;;
71413;SDS011;59226;53.212;5.728;2022-12-18T02:10:48;8.48;;;4.45;;
71413;SDS011;59226;53.212;5.728;2022-12-18T02:15:44;2.97;;;2.50;;
71413;SDS011;59226;53.212;5.728;2022-12-18T02:18:23;4.93;;;2.67;;
71413;SDS011;59226;53.212;5.728;2022-12-18T02:20:59;7.82;;;2.40;;
71413;SDS011;59226;53.212;5.728;2022-12-18T02:23:35;4.85;;;3.15;;
71413;SDS011;59226;53.212;5.728;2022-12-18T02:28:31;3.83;;;1.90;;
71413;SDS011;59226;53.212;5.728;2022-12-18T02:30:57;4.73;;;2.67;;
71413;SDS011;59226;53.212;5.728;2022-12-18T02:33:24;5.20;;;2.92;;
71413;SDS011;59226;53.212;5.728;2022-12-18T02:35:50;6.38;;;2.97;;
71413;SDS011;59226;53.212;5.728;2022-12-18T02:38:16;6.20;;;2.88;;
71413;SDS011;59226;53.212;5.728;2022-12-18T02:40:42;6.13;;;3.40;;
71413;SDS011;59226;53.212;5.728;2022-12-18T02:43:09;6.20;;;4.13;;
71413;SDS011;59226;53.212;5.728;2022-12-18T02:45:34;3.80;;;1.83;;
71413;SDS011;59226;53.212;5.728;2022-12-18T02:47:59;5.40;;;2.60;;
71413;SDS011;59226;53.212;5.728;2022-12-18T02:58:11;7.05;;;2.65;;
71413;SDS011;59226;53.212;5.728;2022-12-18T03:00:43;6.60;;;3.53;;
71413;SDS011;59226;53.212;5.728;2022-12-18T03:03:14;8.90;;;4.87;;
71413;SDS011;59226;53.212;5.728;2022-12-18T03:05:43;3.58;;;2.47;;
71413;SDS011;59226;53.212;5.728;2022-12-18T03:08:24;13.60;;;2.40;;
71413;SDS011;59226;53.212;5.728;2022-12-18T03:11:10;4.97;;;2.28;;
71413;SDS011;59226;53.212;5.728;2022-12-18T03:13:37;5.75;;;2.10;;
71413;SDS011;59226;53.212;5.728;2022-12-18T03:16:03;9.13;;;3.00;;
71413;SDS011;59226;53.212;5.728;2022-12-18T03:18:33;8.73;;;5.13;;
71413;SDS011;59226;53.212;5.728;2022-12-18T03:21:02;6.15;;;3.10;;
71413;SDS011;59226;53.212;5.728;2022-12-18T03:23:31;6.85;;;2.55;;
71413;SDS011;59226;53.212;5.728;2022-12-18T03:25:57;4.45;;;1.83;;
71413;SDS011;59226;53.212;5.728;2022-12-18T03:28:24;4.47;;;3.27;;
71413;SDS011;59226;53.212;5.728;2022-12-18T03:30:52;9.40;;;3.58;;
71413;SDS011;59226;53.212;5.728;2022-12-18T03:33:21;4.13;;;3.33;;
71413;SDS011;59226;53.212;5.728;2022-12-18T03:35:48;4.45;;;1.92;;
71413;SDS011;59226;53.212;5.728;2022-12-18T03:38:14;2.27;;;1.53;;
71413;SDS011;59226;53.212;5.728;2022-12-18T03:43:15;15.32;;;3.85;;
71413;SDS011;59226;53.212;5.728;2022-12-18T03:45:42;5.53;;;2.20;;
71413;SDS011;59226;53.212;5.728;2022-12-18T03:48:15;15.20;;;3.58;;
71413;SDS011;59226;53.212;5.728;2022-12-18T03:50:49;7.57;;;3.80;;
71413;SDS011;59226;53.212;5.728;2022-12-18T03:55:50;5.85;;;2.30;;
71413;SDS011;59226;53.212;5.728;2022-12-18T03:58:17;3.55;;;3.13;;
71413;SDS011;59226;53.212;5.728;2022-12-18T04:00:43;4.57;;;3.00;;
71413;SDS011;59226;53.212;5.728;2022-12-18T04:03:08;5.17;;;3.77;;
71413;SDS011;59226;53.212;5.728;2022-12-18T04:05:35;5.03;;;2.63;;
71413;SDS011;59226;53.212;5.728;2022-12-18T04:08:01;3.97;;;2.08;;
71413;SDS011;59226;53.212;5.728;2022-12-18T04:10:27;9.87;;;3.43;;
71413;SDS011;59226;53.212;5.728;2022-12-18T04:12:55;9.30;;;2.33;;
71413;SDS011;59226;53.212;5.728;2022-12-18T04:15:20;3.85;;;2.28;;
71413;SDS011;59226;53.212;5.728;2022-12-18T04:17:49;8.47;;;3.40;;
71413;SDS011;59226;53.212;5.728;2022-12-18T04:20:15;4.45;;;2.65;;
71413;SDS011;59226;53.212;5.728;2022-12-18T04:22:40;4.73;;;3.07;;
71413;SDS011;59226;53.212;5.728;2022-12-18T04:25:05;3.10;;;1.57;;
71413;SDS011;59226;53.212;5.728;2022-12-18T04:27:31;9.63;;;2.83;;
71413;SDS011;59226;53.212;5.728;2022-12-18T04:29:56;5.57;;;2.27;;
71413;SDS011;59226;53.212;5.728;2022-12-18T04:32:21;3.73;;;3.00;;
71413;SDS011;59226;53.212;5.728;2022-12-18T04:34:46;5.87;;;2.67;;
71413;SDS011;59226;53.212;5.728;2022-12-18T04:37:12;8.83;;;3.27;;
71413;SDS011;59226;53.212;5.728;2022-12-18T04:39:37;10.73;;;3.77;;
71413;SDS011;59226;53.212;5.728;2022-12-18T04:42:02;3.60;;;1.83;;
71413;SDS011;59226;53.212;5.728;2022-12-18T04:44:27;5.77;;;2.57;;
71413;SDS011;59226;53.212;5.728;2022-12-18T04:46:53;6.23;;;3.27;;
71413;SDS011;59226;53.212;5.728;2022-12-18T04:49:18;8.97;;;3.13;;
71413;SDS011;59226;53.212;5.728;2022-12-18T04:51:43;7.93;;;3.83;;
71413;SDS011;59226;53.212;5.728;2022-12-18T04:54:08;8.63;;;3.20;;
71413;SDS011;59226;53.212;5.728;2022-12-18T04:56:34;2.53;;;2.33;;
71413;SDS011;59226;53.212;5.728;2022-12-18T04:58:59;5.77;;;2.73;;
71413;SDS011;59226;53.212;5.728;2022-12-18T05:01:24;5.07;;;2.13;;
71413;SDS011;59226;53.212;5.728;2022-12-18T05:03:50;8.17;;;2.20;;
71413;SDS011;59226;53.212;5.728;2022-12-18T05:06:16;3.25;;;2.15;;
71413;SDS011;59226;53.212;5.728;2022-12-18T05:08:41;5.00;;;2.53;;
71413;SDS011;59226;53.212;5.728;2022-12-18T05:11:08;4.00;;;1.33;;
71413;SDS011;59226;53.212;5.728;2022-12-18T05:13:34;3.70;;;2.20;;
71413;SDS011;59226;53.212;5.728;2022-12-18T05:15:59;4.00;;;2.30;;
71413;SDS011;59226;53.212;5.728;2022-12-18T05:18:25;5.17;;;2.40;;
71413;SDS011;59226;53.212;5.728;2022-12-18T05:20:50;2.45;;;2.15;;
71413;SDS011;59226;53.212;5.728;2022-12-18T05:23:16;0.93;;;0.83;;
71413;SDS011;59226;53.212;5.728;2022-12-18T05:25:41;3.93;;;1.63;;
71413;SDS011;59226;53.212;5.728;2022-12-18T05:28:06;4.27;;;3.30;;
71413;SDS011;59226;53.212;5.728;2022-12-18T05:30:31;8.03;;;2.87;;
71413;SDS011;59226;53.212;5.728;2022-12-18T05:32:57;1.97;;;1.57;;
71413;SDS011;59226;53.212;5.728;2022-12-18T05:35:22;3.37;;;1.53;;
71413;SDS011;59226;53.212;5.728;2022-12-18T05:37:47;2.33;;;2.10;;
71413;SDS011;59226;53.212;5.728;2022-12-18T05:40:12;2.47;;;1.47;;
71413;SDS011;59226;53.212;5.728;2022-12-18T05:42:38;4.00;;;2.30;;
71413;SDS011;59226;53.212;5.728;2022-12-18T05:45:03;12.82;;;2.47;;
71413;SDS011;59226;53.212;5.728;2022-12-18T05:47:29;7.37;;;2.17;;
71413;SDS011;59226;53.212;5.728;2022-12-18T05:49:54;4.90;;;3.17;;
71413;SDS011;59226;53.212;5.728;2022-12-18T05:52:19;3.50;;;3.20;;
71413;SDS011;59226;53.212;5.728;2022-12-18T05:54:45;5.97;;;2.93;;
71413;SDS011;59226;53.212;5.728;2022-12-18T05:57:10;3.77;;;2.23;;
71413;SDS011;59226;53.212;5.728;2022-12-18T05:59:35;12.43;;;3.23;;
71413;SDS011;59226;53.212;5.728;2022-12-18T06:02:00;3.17;;;1.97;;
71413;SDS011;59226;53.212;5.728;2022-12-18T06:04:28;6.30;;;2.60;;
71413;SDS011;59226;53.212;5.728;2022-12-18T06:06:55;11.90;;;2.23;;
71413;SDS011;59226;53.212;5.728;2022-12-18T06:09:20;4.63;;;2.90;;
71413;SDS011;59226;53.212;5.728;2022-12-18T06:11:45;2.50;;;1.40;;
71413;SDS011;59226;53.212;5.728;2022-12-18T06:14:11;11.60;;;2.70;;
71413;SDS011;59226;53.212;5.728;2022-12-18T06:16:36;3.37;;;2.00;;
71413;SDS011;59226;53.212;5.728;2022-12-18T06:19:02;2.53;;;1.63;;
71413;SDS011;59226;53.212;5.728;2022-12-18T06:21:28;4.90;;;3.63;;
71413;SDS011;59226;53.212;5.728;2022-12-18T06:23:53;7.45;;;3.22;;
71413;SDS011;59226;53.212;5.728;2022-12-18T06:26:18;2.97;;;1.47;;
71413;SDS011;59226;53.212;5.728;2022-12-18T06:28:43;3.97;;;3.00;;
71413;SDS011;59226;53.212;5.728;2022-12-18T06:31:09;9.77;;;3.57;;
71413;SDS011;59226;53.212;5.728;2022-12-18T06:33:34;7.97;;;3.10;;
71413;SDS011;59226;53.212;5.728;2022-12-18T06:36:04;2.00;;;1.40;;
71413;SDS011;59226;53.212;5.728;2022-12-18T06:38:29;1.25;;;0.98;;
71413;SDS011;59226;53.212;5.728;2022-12-18T06:40:55;6.95;;;4.15;;
71413;SDS011;59226;53.212;5.728;2022-12-18T06:43:21;3.53;;;2.80;;
71413;SDS011;59226;53.212;5.728;2022-12-18T06:45:46;3.30;;;2.37;;
71413;SDS011;59226;53.212;5.728;2022-12-18T06:48:17;5.20;;;3.05;;
71413;SDS011;59226;53.212;5.728;2022-12-18T06:50:42;6.43;;;2.70;;
71413;SDS011;59226;53.212;5.728;2022-12-18T06:53:07;2.53;;;1.93;;
71413;SDS011;59226;53.212;5.728;2022-12-18T06:55:32;6.37;;;2.37;;
71413;SDS011;59226;53.212;5.728;2022-12-18T06:57:58;5.63;;;2.83;;
71413;SDS011;59226;53.212;5.728;2022-12-18T07:00:23;5.87;;;2.97;;
71413;SDS011;59226;53.212;5.728;2022-12-18T07:02:48;7.57;;;2.23;;
71413;SDS011;59226;53.212;5.728;2022-12-18T07:05:13;3.97;;;1.83;;
71413;SDS011;59226;53.212;5.728;2022-12-18T07:07:39;6.37;;;3.83;;
71413;SDS011;59226;53.212;5.728;2022-12-18T07:10:04;1.50;;;1.07;;
71413;SDS011;59226;53.212;5.728;2022-12-18T07:12:29;2.83;;;1.40;;
71413;SDS011;59226;53.212;5.728;2022-12-18T07:14:54;3.63;;;1.80;;
71413;SDS011;59226;53.212;5.728;2022-12-18T07:17:20;6.87;;;5.33;;
71413;SDS011;59226;53.212;5.728;2022-12-18T07:19:45;6.13;;;3.10;;
71413;SDS011;59226;53.212;5.728;2022-12-18T07:22:10;8.60;;;2.97;;
71413;SDS011;59226;53.212;5.728;2022-12-18T07:24:35;1.33;;;1.07;;
71413;SDS011;59226;53.212;5.728;2022-12-18T07:27:00;2.20;;;1.27;;
71413;SDS011;59226;53.212;5.728;2022-12-18T07:29:26;1.57;;;0.97;;
71413;SDS011;59226;53.212;5.728;2022-12-18T07:31:51;2.80;;;2.03;;
71413;SDS011;59226;53.212;5.728;2022-12-18T07:34:16;2.70;;;1.33;;
71413;SDS011;59226;53.212;5.728;2022-12-18T07:36:41;4.07;;;1.97;;
71413;SDS011;59226;53.212;5.728;2022-12-18T07:39:07;3.90;;;3.10;;
71413;SDS011;59226;53.212;5.728;2022-12-18T07:41:32;4.17;;;1.10;;
71413;SDS011;59226;53.212;5.728;2022-12-18T07:43:58;5.30;;;1.70;;
71413;SDS011;59226;53.212;5.728;2022-12-18T07:46:23;2.80;;;2.13;;
71413;SDS011;59226;53.212;5.728;2022-12-18T07:48:48;2.10;;;1.23;;
71413;SDS011;59226;53.212;5.728;2022-12-18T07:51:13;2.20;;;1.70;;
71413;SDS011;59226;53.212;5.728;2022-12-18T07:53:39;1.90;;;1.57;;
71413;SDS011;59226;53.212;5.728;2022-12-18T07:56:06;4.00;;;1.80;;
71413;SDS011;59226;53.212;5.728;2022-12-18T07:58:32;4.45;;;2.47;;
71413;SDS011;59226;53.212;5.728;2022-12-18T08:01:04;5.80;;;2.97;;
71413;SDS011;59226;53.212;5.728;2022-12-18T08:03:30;7.13;;;2.85;;
71413;SDS011;59226;53.212;5.728;2022-12-18T08:05:59;2.27;;;1.83;;
71413;SDS011;59226;53.212;5.728;2022-12-18T08:08:25;3.22;;;2.25;;
71413;SDS011;59226;53.212;5.728;2022-12-18T08:10:50;4.77;;;2.40;;
71413;SDS011;59226;53.212;5.728;2022-12-18T08:13:15;1.03;;;0.80;;
71413;SDS011;59226;53.212;5.728;2022-12-18T08:15:40;1.53;;;1.23;;
71413;SDS011;59226;53.212;5.728;2022-12-18T08:18:05;1.63;;;1.40;;
71413;SDS011;59226;53.212;5.728;2022-12-18T08:20:31;3.87;;;2.37;;
71413;SDS011;59226;53.212;5.728;2022-12-18T08:22:56;3.10;;;2.20;;
71413;SDS011;59226;53.212;5.728;2022-12-18T08:25:22;2.63;;;1.75;;
71413;SDS011;59226;53.212;5.728;2022-12-18T08:27:48;0.73;;;0.40;;
71413;SDS011;59226;53.212;5.728;2022-12-18T08:30:13;2.43;;;1.47;;
71413;SDS011;59226;53.212;5.728;2022-12-18T08:32:38;1.63;;;1.53;;
71413;SDS011;59226;53.212;5.728;2022-12-18T08:35:04;3.60;;;1.20;;
71413;SDS011;59226;53.212;5.728;2022-12-18T08:37:29;6.73;;;2.80;;
71413;SDS011;59226;53.212;5.728;2022-12-18T08:39:54;4.80;;;1.83;;
71413;SDS011;59226;53.212;5.728;2022-12-18T08:42:19;5.83;;;1.63;;
71413;SDS011;59226;53.212;5.728;2022-12-18T08:45:03;2.65;;;1.58;;
71413;SDS011;59226;53.212;5.728;2022-12-18T08:47:29;3.17;;;1.23;;
71413;SDS011;59226;53.212;5.728;2022-12-18T08:49:54;10.40;;;1.57;;
71413;SDS011;59226;53.212;5.728;2022-12-18T08:52:19;3.03;;;2.03;;
71413;SDS011;59226;53.212;5.728;2022-12-18T08:54:45;7.37;;;3.63;;
71413;SDS011;59226;53.212;5.728;2022-12-18T08:57:10;10.50;;;2.67;;
71413;SDS011;59226;53.212;5.728;2022-12-18T08:59:35;2.00;;;1.60;;
71413;SDS011;59226;53.212;5.728;2022-12-18T09:02:00;6.50;;;2.83;;
71413;SDS011;59226;53.212;5.728;2022-12-18T09:04:25;7.80;;;4.53;;
71413;SDS011;59226;53.212;5.728;2022-12-18T09:06:51;9.03;;;4.87;;
71413;SDS011;59226;53.212;5.728;2022-12-18T09:09:16;1.63;;;1.33;;
71413;SDS011;59226;53.212;5.728;2022-12-18T09:11:41;4.97;;;2.40;;
71413;SDS011;59226;53.212;5.728;2022-12-18T09:14:06;6.93;;;2.87;;
71413;SDS011;59226;53.212;5.728;2022-12-18T09:16:32;4.33;;;2.23;;
71413;SDS011;59226;53.212;5.728;2022-12-18T09:18:59;2.38;;;2.05;;
71413;SDS011;59226;53.212;5.728;2022-12-18T09:21:26;2.53;;;1.07;;
71413;SDS011;59226;53.212;5.728;2022-12-18T09:23:51;1.85;;;1.10;;
71413;SDS011;59226;53.212;5.728;2022-12-18T09:26:17;5.30;;;3.10;;
71413;SDS011;59226;53.212;5.728;2022-12-18T09:28:42;3.83;;;1.27;;
71413;SDS011;59226;53.212;5.728;2022-12-18T09:31:08;2.38;;;1.52;;
71413;SDS011;59226;53.212;5.728;2022-12-18T09:33:34;4.93;;;2.63;;
71413;SDS011;59226;53.212;5.728;2022-12-18T09:36:01;2.53;;;1.63;;
71413;SDS011;59226;53.212;5.728;2022-12-18T09:38:26;4.68;;;1.80;;
71413;SDS011;59226;53.212;5.728;2022-12-18T09:40:52;2.53;;;1.50;;
71413;SDS011;59226;53.212;5.728;2022-12-18T09:43:18;2.30;;;1.38;;
71413;SDS011;59226;53.212;5.728;2022-12-18T09:45:46;1.57;;;1.17;;
71413;SDS011;59226;53.212;5.728;2022-12-18T09:48:18;2.70;;;2.00;;
71413;SDS011;59226;53.212;5.728;2022-12-18T09:50:44;2.35;;;1.77;;
71413;SDS011;59226;53.212;5.728;2022-12-18T09:53:12;4.82;;;1.85;;
71413;SDS011;59226;53.212;5.728;2022-12-18T09:55:41;2.75;;;2.25;;
71413;SDS011;59226;53.212;5.728;2022-12-18T10:00:44;2.28;;;1.98;;
71413;SDS011;59226;53.212;5.728;2022-12-18T10:03:10;3.37;;;1.77;;
71413;SDS011;59226;53.212;5.728;2022-12-18T10:05:37;2.95;;;2.67;;
71413;SDS011;59226;53.212;5.728;2022-12-18T10:10:53;0.85;;;0.63;;
71413;SDS011;59226;53.212;5.728;2022-12-18T10:13:21;3.40;;;2.05;;
71413;SDS011;59226;53.212;5.728;2022-12-18T10:18:26;2.08;;;1.23;;
71413;SDS011;59226;53.212;5.728;2022-12-18T10:20:56;0.85;;;0.50;;
71413;SDS011;59226;53.212;5.728;2022-12-18T10:26:19;1.58;;;0.95;;
71413;SDS011;59226;53.212;5.728;2022-12-18T10:28:45;2.80;;;1.90;;
71413;SDS011;59226;53.212;5.728;2022-12-18T10:31:17;2.10;;;0.63;;
71413;SDS011;59226;53.212;5.728;2022-12-18T10:33:43;1.70;;;1.10;;
71413;SDS011;59226;53.212;5.728;2022-12-18T10:36:08;3.33;;;2.10;;
71413;SDS011;59226;53.212;5.728;2022-12-18T10:38:34;2.10;;;1.07;;
71413;SDS011;59226;53.212;5.728;2022-12-18T10:41:00;1.47;;;0.77;;
71413;SDS011;59226;53.212;5.728;2022-12-18T10:46:12;0.98;;;0.57;;
71413;SDS011;59226;53.212;5.728;2022-12-18T10:51:27;3.15;;;1.42;;
71413;SDS011;59226;53.212;5.728;2022-12-18T10:53:57;1.80;;;1.10;;
71413;SDS011;59226;53.212;5.728;2022-12-18T10:56:23;2.25;;;1.42;;
71413;SDS011;59226;53.212;5.728;2022-12-18T10:59:00;2.83;;;1.50;;
71413;SDS011;59226;53.212;5.728;2022-12-18T11:01:25;1.48;;;1.00;;
71413;SDS011;59226;53.212;5.728;2022-12-18T11:06:20;2.30;;;1.33;;
71413;SDS011;59226;53.212;5.728;2022-12-18T11:11:33;5.82;;;1.75;;
71413;SDS011;59226;53.212;5.728;2022-12-18T11:14:32;1.57;;;1.07;;
71413;SDS011;59226;53.212;5.728;2022-12-18T11:16:50;2.63;;;1.67;;
71413;SDS011;59226;53.212;5.728;2022-12-18T11:22:01;2.63;;;1.40;;
71413;SDS011;59226;53.212;5.728;2022-12-18T11:24:28;2.22;;;1.15;;
71413;SDS011;59226;53.212;5.728;2022-12-18T11:26:54;2.28;;;1.38;;
71413;SDS011;59226;53.212;5.728;2022-12-18T11:29:24;4.80;;;1.43;;
71413;SDS011;59226;53.212;5.728;2022-12-18T11:31:51;1.73;;;1.20;;
71413;SDS011;59226;53.212;5.728;2022-12-18T11:34:28;1.30;;;1.05;;
71413;SDS011;59226;53.212;5.728;2022-12-18T11:36:55;1.40;;;0.75;;
71413;SDS011;59226;53.212;5.728;2022-12-18T11:39:21;2.87;;;1.83;;
71413;SDS011;59226;53.212;5.728;2022-12-18T11:41:53;2.27;;;1.53;;
71413;SDS011;59226;53.212;5.728;2022-12-18T11:47:05;1.50;;;1.20;;
71413;SDS011;59226;53.212;5.728;2022-12-18T11:49:34;2.33;;;1.25;;
71413;SDS011;59226;53.212;5.728;2022-12-18T11:54:55;5.00;;;1.57;;
71413;SDS011;59226;53.212;5.728;2022-12-18T12:09:42;4.40;;;1.85;;
71413;SDS011;59226;53.212;5.728;2022-12-18T12:12:56;0.77;;;0.40;;
71413;SDS011;59226;53.212;5.728;2022-12-18T12:18:00;2.70;;;1.63;;
71413;SDS011;59226;53.212;5.728;2022-12-18T12:25:44;2.10;;;1.17;;
71413;SDS011;59226;53.212;5.728;2022-12-18T12:33:43;1.23;;;0.77;;
71413;SDS011;59226;53.212;5.728;2022-12-18T12:38:48;2.72;;;1.10;;
71413;SDS011;59226;53.212;5.728;2022-12-18T12:41:17;1.43;;;1.03;;
71413;SDS011;59226;53.212;5.728;2022-12-18T12:44:03;2.15;;;1.00;;
71413;SDS011;59226;53.212;5.728;2022-12-18T12:46:30;4.88;;;2.35;;
71413;SDS011;59226;53.212;5.728;2022-12-18T12:48:58;4.95;;;1.33;;
71413;SDS011;59226;53.212;5.728;2022-12-18T12:51:29;1.90;;;1.30;;
71413;SDS011;59226;53.212;5.728;2022-12-18T12:53:56;5.80;;;1.90;;
71413;SDS011;59226;53.212;5.728;2022-12-18T12:56:22;2.40;;;1.10;;
71413;SDS011;59226;53.212;5.728;2022-12-18T13:08:53;2.63;;;1.23;;
71413;SDS011;59226;53.212;5.728;2022-12-18T13:14:39;1.10;;;0.80;;
71413;SDS011;59226;53.212;5.728;2022-12-18T13:19:49;1.53;;;0.80;;
71413;SDS011;59226;53.212;5.728;2022-12-18T13:24:46;1.55;;;0.43;;
71413;SDS011;59226;53.212;5.728;2022-12-18T13:29:56;1.30;;;0.97;;
71413;SDS011;59226;53.212;5.728;2022-12-18T13:32:23;2.27;;;1.43;;
71413;SDS011;59226;53.212;5.728;2022-12-18T13:34:49;6.82;;;1.38;;
71413;SDS011;59226;53.212;5.728;2022-12-18T13:39:57;0.80;;;0.52;;
71413;SDS011;59226;53.212;5.728;2022-12-18T13:45:49;4.65;;;1.35;;
71413;SDS011;59226;53.212;5.728;2022-12-18T13:47:55;1.65;;;1.13;;
71413;SDS011;59226;53.212;5.728;2022-12-18T13:50:23;3.50;;;1.30;;
71413;SDS011;59226;53.212;5.728;2022-12-18T13:52:49;1.88;;;1.58;;
71413;SDS011;59226;53.212;5.728;2022-12-18T13:55:16;1.43;;;1.10;;
71413;SDS011;59226;53.212;5.728;2022-12-18T13:57:43;6.28;;;1.38;;
71413;SDS011;59226;53.212;5.728;2022-12-18T14:00:23;0.87;;;0.40;;
71413;SDS011;59226;53.212;5.728;2022-12-18T14:02:48;1.17;;;0.68;;
71413;SDS011;59226;53.212;5.728;2022-12-18T14:07:48;1.60;;;0.70;;
71413;SDS011;59226;53.212;5.728;2022-12-18T14:10:14;0.35;;;0.25;;
71413;SDS011;59226;53.212;5.728;2022-12-18T14:12:40;1.43;;;1.07;;
71413;SDS011;59226;53.212;5.728;2022-12-18T14:17:51;1.13;;;0.50;;
71413;SDS011;59226;53.212;5.728;2022-12-18T14:20:17;0.80;;;0.60;;
71413;SDS011;59226;53.212;5.728;2022-12-18T14:22:45;2.43;;;1.33;;
71413;SDS011;59226;53.212;5.728;2022-12-18T14:25:18;0.95;;;0.60;;
71413;SDS011;59226;53.212;5.728;2022-12-18T14:27:45;1.30;;;0.87;;
71413;SDS011;59226;53.212;5.728;2022-12-18T14:36:19;0.98;;;0.73;;
71413;SDS011;59226;53.212;5.728;2022-12-18T14:38:37;0.47;;;0.32;;
71413;SDS011;59226;53.212;5.728;2022-12-18T14:41:03;1.37;;;1.07;;
71413;SDS011;59226;53.212;5.728;2022-12-18T14:43:33;0.70;;;0.40;;
71413;SDS011;59226;53.212;5.728;2022-12-18T14:45:59;1.05;;;0.65;;
71413;SDS011;59226;53.212;5.728;2022-12-18T14:50:57;0.47;;;0.30;;
71413;SDS011;59226;53.212;5.728;2022-12-18T14:53:25;3.40;;;1.23;;
71413;SDS011;59226;53.212;5.728;2022-12-18T14:55:52;1.13;;;0.90;;
71413;SDS011;59226;53.212;5.728;2022-12-18T14:58:18;1.77;;;1.15;;
71413;SDS011;59226;53.212;5.728;2022-12-18T15:00:43;1.73;;;1.37;;
71413;SDS011;59226;53.212;5.728;2022-12-18T15:03:08;3.13;;;1.50;;
71413;SDS011;59226;53.212;5.728;2022-12-18T15:05:35;1.38;;;0.65;;
71413;SDS011;59226;53.212;5.728;2022-12-18T15:08:00;1.57;;;0.93;;
71413;SDS011;59226;53.212;5.728;2022-12-18T15:20:40;0.93;;;0.40;;
71413;SDS011;59226;53.212;5.728;2022-12-18T15:23:14;2.92;;;1.80;;
71413;SDS011;59226;53.212;5.728;2022-12-18T15:25:39;0.55;;;0.55;;
71413;SDS011;59226;53.212;5.728;2022-12-18T15:28:15;1.10;;;0.73;;
71413;SDS011;59226;53.212;5.728;2022-12-18T15:30:41;2.35;;;1.25;;
71413;SDS011;59226;53.212;5.728;2022-12-18T15:33:23;2.03;;;1.20;;
71413;SDS011;59226;53.212;5.728;2022-12-18T15:35:55;0.68;;;0.47;;
71413;SDS011;59226;53.212;5.728;2022-12-18T15:38:20;0.67;;;0.50;;
71413;SDS011;59226;53.212;5.728;2022-12-18T15:40:46;0.70;;;0.60;;
71413;SDS011;59226;53.212;5.728;2022-12-18T15:43:11;1.70;;;1.03;;
71413;SDS011;59226;53.212;5.728;2022-12-18T15:45:55;3.10;;;0.60;;
71413;SDS011;59226;53.212;5.728;2022-12-18T15:48:21;2.58;;;1.20;;
71413;SDS011;59226;53.212;5.728;2022-12-18T15:50:47;0.52;;;0.50;;
71413;SDS011;59226;53.212;5.728;2022-12-18T15:53:12;0.30;;;0.30;;
71413;SDS011;59226;53.212;5.728;2022-12-18T15:55:37;0.77;;;0.53;;
71413;SDS011;59226;53.212;5.728;2022-12-18T15:58:21;1.55;;;1.27;;
71413;SDS011;59226;53.212;5.728;2022-12-18T16:00:46;1.67;;;1.10;;
71413;SDS011;59226;53.212;5.728;2022-12-18T16:03:12;0.70;;;0.50;;
71413;SDS011;59226;53.212;5.728;2022-12-18T16:05:37;0.77;;;0.53;;
71413;SDS011;59226;53.212;5.728;2022-12-18T16:08:02;1.30;;;0.83;;
71413;SDS011;59226;53.212;5.728;2022-12-18T16:10:29;1.13;;;0.73;;
71413;SDS011;59226;53.212;5.728;2022-12-18T16:12:54;1.00;;;0.77;;
71413;SDS011;59226;53.212;5.728;2022-12-18T16:15:19;0.70;;;0.63;;
71413;SDS011;59226;53.212;5.728;2022-12-18T16:17:45;1.30;;;1.00;;
71413;SDS011;59226;53.212;5.728;2022-12-18T16:20:18;2.97;;;1.27;;
71413;SDS011;59226;53.212;5.728;2022-12-18T16:22:44;0.37;;;0.30;;
71413;SDS011;59226;53.212;5.728;2022-12-18T16:25:20;1.30;;;0.77;;
71413;SDS011;59226;53.212;5.728;2022-12-18T16:27:46;0.73;;;0.35;;
71413;SDS011;59226;53.212;5.728;2022-12-18T16:30:14;3.40;;;1.53;;
71413;SDS011;59226;53.212;5.728;2022-12-18T16:32:39;2.67;;;1.17;;
71413;SDS011;59226;53.212;5.728;2022-12-18T16:35:05;2.63;;;0.40;;
71413;SDS011;59226;53.212;5.728;2022-12-18T16:37:30;0.47;;;0.30;;
71413;SDS011;59226;53.212;5.728;2022-12-18T16:39:55;2.33;;;1.53;;
71413;SDS011;59226;53.212;5.728;2022-12-18T16:42:20;2.53;;;1.23;;
71413;SDS011;59226;53.212;5.728;2022-12-18T16:44:46;1.02;;;0.93;;
71413;SDS011;59226;53.212;5.728;2022-12-18T16:47:11;0.90;;;0.60;;
71413;SDS011;59226;53.212;5.728;2022-12-18T16:49:37;0.93;;;0.50;;
71413;SDS011;59226;53.212;5.728;2022-12-18T16:52:03;0.90;;;0.60;;
71413;SDS011;59226;53.212;5.728;2022-12-18T16:54:28;1.58;;;0.70;;
71413;SDS011;59226;53.212;5.728;2022-12-18T16:56:57;1.73;;;0.95;;
71413;SDS011;59226;53.212;5.728;2022-12-18T16:59:22;3.57;;;1.17;;
71413;SDS011;59226;53.212;5.728;2022-12-18T17:01:48;1.30;;;0.57;;